• Join FlightAware (Why Join?)
  • Login
  • US Flag GB Flag 
10:31 EDT


 

Airport Tracker/Info


-or-


 

Live Flight TrackerFlight Track Log ✈ DAL268 ✈ 06-Jul-2013 ✈ KJFK - LLBG / TLV

Flight Track Log - Related Links

Times and Time Zones

All times are in EDT time to prevent confusion due to time zone crossing. See the DAL268 flight status page for this flight to view local times or setup timezone preferences in your user account.

Time Position Orientation Groundspeed Altitude Reporting Facility
EDT Latitude Longitude Course Direction KTS MPH feet Rate Location/Type
23:52 40.6310 -73.7830 91° East 10 12  Level FlightAware
23:54 40.6320 -73.7830 360° North 2 2  Level FlightAware
23:55 40.6310 -73.7830 180° South  Level FlightAware
23:58 40.5833 -73.3777 90° East  Level FlightAware Approximate
23:59 40.5644 -73.2085 97° East  Level FlightAware Approximate
00:00 40.5500 -73.0338 90° East  Level FlightAware Approximate
00:00 40.6300 -73.7830 72° East 16 18  Level FlightAware
00:01 40.5791 -72.8671 72° East  Level FlightAware Approximate
00:01 40.6290 -73.7830 180° South 18 21  Level FlightAware
00:01 40.6280 -73.7820 143° Southeast 23 26  Level FlightAware
00:02 40.6290 -73.7800 57° Northeast 24 28  Level FlightAware
00:02 40.6300 -73.7800 360° North 26 30  Level FlightAware
00:03 40.6310 -73.7790 37° Northeast 30 35  Level FlightAware
00:03 40.6320 -73.7780 37° Northeast 32 37  Level FlightAware
00:04 40.6340 -73.7770 21° North 15 17  Level FlightAware
00:04 40.6350 -73.7750 57° Northeast 16 18  Level FlightAware
00:04 40.6360 -73.7750 360° North 15 17  Level FlightAware
00:05 40.6380 -73.7740 21° North 30 35  Level FlightAware
00:05 40.6390 -73.7740 360° North 20 23  Level FlightAware
00:05 40.6400 -73.7740 360° North 18 21  Level FlightAware
00:06 40.6400 -73.7750 270° West 20 23  Level FlightAware
00:06 40.6400 -73.7760 270° West 22 25  Level FlightAware
00:07 40.6410 -73.7770 323° Northwest 32 37  Level FlightAware
00:07 40.6420 -73.7790 303° West 16 18  Level FlightAware
00:07 40.6430 -73.7810 303° West 18 21  Level FlightAware
00:07 40.6430 -73.7820 270° West 16 18  Level FlightAware
00:08 40.6440 -73.7830 323° Northwest 16 18  Level FlightAware
00:08 40.6440 -73.7840 270° West 27 31  Level FlightAware
00:08 40.6450 -73.7850 323° Northwest 11 13  Level FlightAware
00:11 40.5911 -73.4145 108° East  Level FlightAware Approximate
00:12 40.5723 -73.2445 123° Southeast  Level FlightAware Approximate
00:12 40.6440 -73.7850 97° East  Level FlightAware
00:13 40.5520 -73.0720 97° East  Level FlightAware Approximate
00:13 40.6450 -73.7860 323° Northwest 14 16  Level FlightAware
00:16 40.5833 -73.3809 90° East  Level FlightAware Approximate
00:17 40.5647 -73.2117 97° East  Level FlightAware Approximate
00:18 40.5500 -73.0370 90° East  Level FlightAware Approximate
00:19 40.5783 -72.8701 72° East  Level FlightAware Approximate
00:20 40.6306 -72.7082 66° East  Level FlightAware Approximate
00:21 40.6648 -72.5406 72° East  Level FlightAware Approximate
00:22 40.7085 -72.3742 75° East  Level FlightAware Approximate
00:23 40.7485 -72.2060 72° East  Level FlightAware Approximate
00:24 40.7905 -72.0385 72° East  Level FlightAware Approximate
00:25 40.8368 -71.8731 66° East  Level FlightAware Approximate
00:25 40.6450 -73.7860 69° East 23 26  Level FlightAware
00:26 40.8723 -71.7055 69° East  Level FlightAware Approximate
00:26 40.6460 -73.7850 37° Northeast 19 22  Level FlightAware
00:27 40.6460 -73.7830 90° East 20 23  Level FlightAware
00:27 40.6460 -73.7820 90° East 15 17  Level FlightAware
00:28 40.6460 -73.7810 90° East 13 15  Level FlightAware
00:28 40.6450 -73.7810 180° South 12 14  Level FlightAware
00:29 40.6440 -73.7790 123° Southeast 15 17  Level FlightAware
00:30 40.6440 -73.7780 90° East 14 16  Level FlightAware
00:30 40.6440 -73.7770 90° East 14 16  Level FlightAware
00:31 40.6430 -73.7760 143° Southeast 11 13  Level FlightAware
00:32 40.6430 -73.7750 90° East 13 15  Level FlightAware
00:32 40.6430 -73.7740 90° East 12 14  Level FlightAware
00:33 40.6420 -73.7740 180° South 14 16  Level FlightAware
00:33 40.6420 -73.7730 90° East 13 15  Level FlightAware
00:34 40.6420 -73.7720 90° East 2 2  Level FlightAware
00:35 40.6410 -73.7710 143° Southeast 15 17  Level FlightAware
00:36 40.6410 -73.7700 90° East 14 16  Level FlightAware
00:37 40.6420 -73.7700 360° North  Level FlightAware
00:38 40.6410 -73.7690 143° Southeast 9 10  Level FlightAware
00:38 40.6410 -73.7680 90° East 25 29  Level FlightAware
00:39 40.6400 -73.7680 180° South 23 26  Level FlightAware
00:40 40.6390 -73.7690 217° Southwest 45 52  Level FlightAware
00:40 40.6240 -73.7810 211° Southwest 165 190 120 Level FlightAware
00:40 40.6160 -73.7880 214° Southwest 179 206 100 1,620 Climbing FlightAware
00:41 40.5950 -73.8020 207° Southwest 178 205 1,100 1,500 Climbing FlightAware
00:41 40.5740 -73.8160 207° Southwest 208 239 1,500 1,020 Climbing FlightAware
00:42 40.5440 -73.8260 194° South 245 282 2,100 1,200 Climbing FlightAware
00:42 40.5260 -73.8220 170° South 261 300 2,400 1,680 Climbing FlightAware
00:42 40.5120 -73.8140 157° South 271 312 2,900 1,740 Climbing FlightAware
00:42 40.4976 -73.7990 142° Southeast 287 330 3,200 1,560 Climbing FlightAware ADS-B
00:43 40.4869 -73.7825 130° Southeast 294 338 3,600 2,580 Climbing FlightAware ADS-B
00:43 40.4837 -73.7760 123° Southeast 295 339 3,900 3,300 Climbing FlightAware ADS-B
00:43 40.4808 -73.7687 118° Southeast 297 342 4,100 2,400 Climbing FlightAware ADS-B
00:43 40.4780 -73.7601 113° Southeast 301 346 4,300 1,620 Climbing FlightAware ADS-B
00:43 40.4756 -73.7505 108° East 306 352 4,400 1,320 Climbing FlightAware ADS-B
00:43 40.4744 -73.7449 106° East 309 356 4,500 1,680 Climbing FlightAware ADS-B
00:43 40.4734 -73.7364 99° East 311 358 4,600 2,220 Climbing FlightAware ADS-B
00:43 40.4731 -73.7299 93° East 311 358 4,800 3,000 Climbing FlightAware ADS-B
00:43 40.4732 -73.7215 89° East 311 358 5,000 3,000 Climbing FlightAware ADS-B
00:43 40.4746 -73.7102 81° East 311 358 5,300 3,000 Climbing FlightAware ADS-B
00:43 40.4768 -73.6993 75° East 311 358 5,600 2,700 Climbing FlightAware ADS-B
00:44 40.4823 -73.6734 74° East 317 365 6,200 2,160 Climbing FlightAware ADS-B
00:44 40.4855 -73.6533 78° East 323 372 6,500 2,520 Climbing FlightAware ADS-B
00:44 40.4882 -73.6238 83° East 323 372 7,300 2,880 Climbing FlightAware ADS-B
00:44 40.4903 -73.5930 85° East 324 373 8,000 2,460 Climbing FlightAware ADS-B
00:45 40.4925 -73.5627 85° East 328 377 8,600 2,280 Climbing FlightAware ADS-B
00:45 40.4957 -73.5312 82° East 332 382 9,200 2,220 Climbing FlightAware ADS-B
00:45 40.4993 -73.4996 81° East 336 387 9,800 1,800 Climbing FlightAware ADS-B
00:46 40.5071 -73.4371 81° East 358 412 10,600 1,440 Climbing FlightAware ADS-B
00:46 40.5166 -73.3637 80° East 388 447 11,300 1,140 Climbing FlightAware ADS-B
00:47 40.5257 -73.2895 81° East 416 479 11,800 1,140 Climbing FlightAware ADS-B
00:47 40.5355 -73.2079 81° East 440 506 12,500 1,560 Climbing FlightAware ADS-B
00:48 40.5456 -73.1212 81° East 452 520 13,500 1,980 Climbing FlightAware ADS-B
00:48 40.5553 -73.0362 81° East 462 532 14,600 2,040 Climbing FlightAware ADS-B
00:49 40.5657 -72.9479 81° East 469 540 15,700 1,920 Climbing FlightAware ADS-B
00:50 40.5830 -72.7980 81° East 480 552 17,300 1,800 Climbing FlightAware
00:50 40.5876 -72.7620 80° East 476 548 17,700 1,740 Climbing FlightAware ADS-B
00:51 40.6110 -72.5580 81° East 498 573 19,700 1,680 Climbing FlightAware
00:52 40.6260 -72.4270 81° East 507 583 20,900 1,560 Climbing FlightAware
00:52 40.6327 -72.3708 81° East 513 590 21,300 1,320 Climbing FlightAware ADS-B
00:53 40.6435 -72.2752 82° East 517 595 22,000 1,500 Climbing FlightAware ADS-B
00:54 40.6634 -72.0963 82° East 525 604 23,500 1,500 Climbing FlightAware ADS-B
00:54 40.6742 -71.9992 82° East 528 608 24,200 1,260 Climbing FlightAware ADS-B
00:55 40.6850 -71.9011 82° East 534 615 24,800 120 Climbing FlightAware ADS-B
00:55 40.7030 -71.7600 80° East 531 611 24,400 -240 Descending FlightAware
00:56 40.7180 -71.6320 81° East 531 611 24,400  Level FlightAware
00:57 40.7300 -71.5340 81° East 531 611 24,400  Level FlightAware
00:57 40.7410 -71.4360 82° East 531 611 24,400  Level FlightAware
00:58 40.7530 -71.3380 81° East 531 611 24,400 4,500 Level FlightAware
00:59 40.7730 -71.0650 84° East 534 615 30,600 4,380 Climbing FlightAware
00:59 40.7840 -70.9610 82° East 534 615 30,600  Level FlightAware
01:00 40.7940 -70.8620 82° East 534 615 30,600  Level FlightAware
01:01 40.8080 -70.7300 82° East 534 615 30,600  Level FlightAware
01:01 40.8190 -70.6280 82° East 534 615 30,600  Level FlightAware
01:02 40.8300 -70.5290 82° East 534 615 30,600  Level FlightAware
01:03 40.8430 -70.4000 82° East 534 615 30,600  Level FlightAware
01:03 40.8540 -70.3010 82° East 534 615 30,600  Level FlightAware
01:04 40.8690 -70.1610 82° East 534 615 30,600  Level FlightAware
01:05 40.8800 -70.0590 82° East 534 615 30,600  Level FlightAware
01:06 40.8900 -69.9600 82° East 534 615 30,600  Level FlightAware
01:06 40.9010 -69.8610 82° East 534 615 30,600  Level FlightAware
01:07 40.9150 -69.7290 82° East 534 615 30,600  Level FlightAware
01:08 40.9250 -69.6330 82° East 534 615 30,600  Level FlightAware
01:08 40.9380 -69.5060 82° East 534 615 30,600 120 Level FlightAware
01:10 40.9706 -68.9722 82° East 541 623 30,900 120 Climbing New York Center
01:11 40.9861 -68.7742 84° East 541 623 30,900  Level New York Center
01:12 41.0017 -68.5814 84° East 541 623 30,900  Level New York Center
01:13 41.0167 -68.3856 84° East 541 623 30,900  Level New York Center
01:14 41.0336 -68.1897 83° East 541 623 30,900  Level New York Center
01:15 41.0481 -67.9939 84° East 541 623 30,900  Level New York Center
01:16 41.0622 -67.7953 85° East 541 623 30,900  Level New York Center
01:17 41.0778 -67.5964 84° East 541 623 30,900  Level New York Center
01:18 41.0894 -67.4033 85° East 541 623 30,900  Level New York Center
01:19 41.1047 -67.2069 84° East 541 623 30,900  Level New York Center
01:20 41.1172 -67.0081 85° East 541 623 30,900  Level New York Center
01:21 41.1467 -66.8164 78° East 541 623 30,900  Level New York Center
01:23 41.1167 -67.0000 78° East 548 631 31,000  Climbing New York Oceanic (ODAPS)
01:29 41.3842 -65.2189 79° East 548 631 31,000  Level FlightAware Transoceanic
01:30 41.4122 -65.0201 79° East 548 631 31,000  Level FlightAware Transoceanic
01:31 41.4399 -64.8212 80° East 548 631 31,000  Level FlightAware Transoceanic
01:32 41.4672 -64.6221 80° East 548 631 31,000  Level FlightAware Transoceanic
01:33 41.4942 -64.4228 80° East 548 631 31,000  Level FlightAware Transoceanic
01:34 41.5209 -64.2233 80° East 548 631 31,000  Level FlightAware Transoceanic
01:35 41.5472 -64.0237 80° East 548 631 31,000  Level FlightAware Transoceanic
01:36 41.5731 -63.8239 80° East 548 631 31,000  Level FlightAware Transoceanic
01:37 41.5988 -63.6240 80° East 548 631 31,000  Level FlightAware Transoceanic
01:38 41.6240 -63.4239 80° East 548 631 31,000  Level FlightAware Transoceanic
01:39 41.6489 -63.2236 81° East 548 631 31,000  Level FlightAware Transoceanic
01:40 41.6735 -63.0232 81° East 548 631 31,000  Level FlightAware Transoceanic
01:41 41.6977 -62.8227 81° East 548 631 31,000  Level FlightAware Transoceanic
01:42 41.7216 -62.6220 81° East 548 631 31,000  Level FlightAware Transoceanic
01:43 41.7451 -62.4211 81° East 548 631 31,000  Level FlightAware Transoceanic
01:44 41.7683 -62.2201 81° East 548 631 31,000  Level FlightAware Transoceanic
01:45 41.7911 -62.0190 81° East 548 631 31,000  Level FlightAware Transoceanic
01:46 41.8136 -61.8177 82° East 548 631 31,000  Level FlightAware Transoceanic
01:47 41.8357 -61.6162 82° East 548 631 31,000  Level FlightAware Transoceanic
01:48 41.8575 -61.4147 82° East 548 631 31,000  Level FlightAware Transoceanic
01:49 41.8789 -61.2130 82° East 548 631 31,000  Level FlightAware Transoceanic
01:50 41.9000 -61.0111 82° East 548 631 31,000  Level FlightAware Transoceanic
01:51 41.9207 -60.8092 82° East 548 631 31,000  Level FlightAware Transoceanic
01:52 41.9411 -60.6071 82° East 548 631 31,000  Level FlightAware Transoceanic
01:53 41.9611 -60.4048 82° East 548 631 31,000  Level FlightAware Transoceanic
01:54 41.9807 -60.2025 83° East 548 631 31,000  Level FlightAware Transoceanic
01:55 42.0000 -60.0000 71° East 548 631 31,000  Level FlightAware Transoceanic
01:56 42.0484 -59.8067 71° East 548 631 31,000  Level FlightAware Transoceanic
01:57 42.0964 -59.6131 72° East 548 631 31,000  Level FlightAware Transoceanic
01:58 42.1441 -59.4192 72° East 548 631 31,000  Level FlightAware Transoceanic
01:59 42.1914 -59.2250 72° East 548 631 31,000  Level FlightAware Transoceanic
02:00 42.2385 -59.0305 72° East 548 631 31,000  Level FlightAware Transoceanic
02:01 42.2852 -58.8357 72° East 548 631 31,000  Level FlightAware Transoceanic
02:02 42.3316 -58.6406 72° East 548 631 31,000  Level FlightAware Transoceanic
02:03 42.3777 -58.4453 72° East 548 631 31,000  Level FlightAware Transoceanic
02:04 42.4234 -58.2496 73° East 548 631 31,000  Level FlightAware Transoceanic
02:05 42.4688 -58.0537 73° East 548 631 31,000  Level FlightAware Transoceanic
02:06 42.5138 -57.8575 73° East 548 631 31,000  Level FlightAware Transoceanic
02:07 42.5585 -57.6610 73° East 548 631 31,000  Level FlightAware Transoceanic
02:07 42.0000 -60.0000 71° East 547 629 31,000  Level New York Oceanic (ODAPS)
02:08 42.6029 -57.4642 73° East 548 631 31,000  Level FlightAware Transoceanic
02:09 42.6470 -57.2672 73° East 548 631 31,000  Level FlightAware Transoceanic
02:10 42.6907 -57.0699 73° East 548 631 31,000  Level FlightAware Transoceanic
02:11 42.7340 -56.8723 73° East 548 631 31,000  Level FlightAware Transoceanic
02:12 42.7771 -56.6744 74° East 548 631 31,000  Level FlightAware Transoceanic
02:13 42.8621 -56.2778 74° East 547 629 31,000  Level FlightAware Transoceanic
02:14 42.9041 -56.0791 74° East 547 629 31,000  Level FlightAware Transoceanic
02:15 42.9458 -55.8801 74° East 547 629 31,000  Level FlightAware Transoceanic
02:16 42.9871 -55.6809 74° East 547 629 31,000  Level FlightAware Transoceanic
02:17 43.0280 -55.4814 74° East 547 629 31,000  Level FlightAware Transoceanic
02:18 43.0687 -55.2816 75° East 547 629 31,000  Level FlightAware Transoceanic
02:19 43.1089 -55.0816 75° East 547 629 31,000  Level FlightAware Transoceanic
02:20 43.1489 -54.8813 75° East 547 629 31,000  Level FlightAware Transoceanic
02:21 43.1884 -54.6807 75° East 547 629 31,000  Level FlightAware Transoceanic
02:22 43.2277 -54.4799 75° East 547 629 31,000  Level FlightAware Transoceanic
02:23 43.2665 -54.2789 75° East 547 629 31,000  Level FlightAware Transoceanic
02:24 43.3050 -54.0775 75° East 547 629 31,000  Level FlightAware Transoceanic
02:25 43.3432 -53.8759 75° East 547 629 31,000  Level FlightAware Transoceanic
02:26 43.3810 -53.6741 76° East 547 629 31,000  Level FlightAware Transoceanic
02:27 43.4185 -53.4720 76° East 547 629 31,000  Level FlightAware Transoceanic
02:28 43.4556 -53.2697 76° East 547 629 31,000  Level FlightAware Transoceanic
02:29 43.4923 -53.0671 76° East 547 629 31,000  Level FlightAware Transoceanic
02:30 43.5287 -52.8643 76° East 547 629 31,000  Level FlightAware Transoceanic
02:31 43.5647 -52.6612 76° East 547 629 31,000  Level FlightAware Transoceanic
02:32 43.6004 -52.4579 76° East 547 629 31,000  Level FlightAware Transoceanic
02:33 43.6357 -52.2544 77° East 547 629 31,000  Level FlightAware Transoceanic
02:34 43.6707 -52.0506 77° East 547 629 31,000  Level FlightAware Transoceanic
02:35 43.7052 -51.8465 77° East 547 629 31,000  Level FlightAware Transoceanic
02:36 43.7394 -51.6423 77° East 547 629 31,000  Level FlightAware Transoceanic
02:37 43.7733 -51.4378 77° East 547 629 31,000  Level FlightAware Transoceanic
02:38 43.8068 -51.2331 77° East 547 629 31,000  Level FlightAware Transoceanic
02:39 43.8399 -51.0281 77° East 547 629 31,000  Level FlightAware Transoceanic
02:40 43.8727 -50.8229 78° East 547 629 31,000  Level FlightAware Transoceanic
02:41 43.9050 -50.6175 78° East 547 629 31,000  Level FlightAware Transoceanic
02:42 43.9371 -50.4119 78° East 547 629 31,000  Level FlightAware Transoceanic
02:43 43.9687 -50.2061 78° East 547 629 31,000  Level FlightAware Transoceanic
02:44 44.0000 -50.0000 63° Northeast 547 629 31,000  Level FlightAware Transoceanic
02:45 44.0644 -49.8213 63° Northeast 547 629 31,000  Level FlightAware Transoceanic
02:46 44.1285 -49.6422 64° Northeast 547 629 31,000  Level FlightAware Transoceanic
02:46 44.0000 -50.0000 63° Northeast 529 609 31,000  Level New York Oceanic (ODAPS)
02:47 44.1924 -49.4627 64° Northeast 547 629 31,000  Level FlightAware Transoceanic
02:48 44.2560 -49.2829 64° Northeast 547 629 31,000  Level FlightAware Transoceanic
02:49 44.3192 -49.1026 64° Northeast 547 629 31,000  Level FlightAware Transoceanic
02:50 44.3823 -48.9220 64° Northeast 547 629 31,000  Level FlightAware Transoceanic
02:51 44.4450 -48.7410 64° Northeast 547 629 31,000  Level FlightAware Transoceanic
02:52 44.5170 -48.5316 64° Northeast 529 609 31,000  Level FlightAware Transoceanic
02:53 44.5803 -48.3462 64° Northeast 529 609 31,000  Level FlightAware Transoceanic
02:54 44.6432 -48.1605 65° Northeast 529 609 31,000  Level FlightAware Transoceanic
02:55 44.7059 -47.9743 65° Northeast 529 609 31,000  Level FlightAware Transoceanic
02:56 44.7683 -47.7877 65° Northeast 529 609 31,000  Level FlightAware Transoceanic
02:57 44.8304 -47.6007 65° Northeast 529 609 31,000  Level FlightAware Transoceanic
02:58 44.8922 -47.4134 65° Northeast 529 609 31,000  Level FlightAware Transoceanic
02:59 44.9536 -47.2256 65° Northeast 529 609 31,000  Level FlightAware Transoceanic
03:00 45.0148 -47.0374 65° Northeast 529 609 31,000  Level FlightAware Transoceanic
03:01 45.0756 -46.8488 66° East 529 609 31,000  Level FlightAware Transoceanic
03:02 45.1362 -46.6598 66° East 529 609 31,000  Level FlightAware Transoceanic
03:03 45.1964 -46.4705 66° East 529 609 31,000  Level FlightAware Transoceanic
03:04 45.2563 -46.2807 66° East 529 609 31,000  Level FlightAware Transoceanic
03:05 45.3159 -46.0905 66° East 529 609 31,000  Level FlightAware Transoceanic
03:06 45.3752 -45.8999 66° East 529 609 31,000  Level FlightAware Transoceanic
03:07 45.4342 -45.7089 66° East 529 609 31,000  Level FlightAware Transoceanic
03:08 45.4928 -45.5175 66° East 529 609 31,000  Level FlightAware Transoceanic
03:09 45.5511 -45.3257 67° East 529 609 31,000  Level FlightAware Transoceanic
03:10 45.6091 -45.1336 67° East 529 609 31,000  Level FlightAware Transoceanic
03:11 45.6668 -44.9410 67° East 529 609 31,000  Level FlightAware Transoceanic
03:12 45.7242 -44.7480 67° East 529 609 31,000  Level FlightAware Transoceanic
03:13 45.7812 -44.5547 67° East 529 609 31,000  Level FlightAware Transoceanic
03:14 45.8379 -44.3609 67° East 529 609 31,000  Level FlightAware Transoceanic
03:15 45.8943 -44.1668 67° East 529 609 31,000  Level FlightAware Transoceanic
03:16 45.9503 -43.9722 68° East 529 609 31,000  Level FlightAware Transoceanic
03:17 46.0060 -43.7773 68° East 529 609 31,000  Level FlightAware Transoceanic
03:18 46.0614 -43.5819 68° East 529 609 31,000  Level FlightAware Transoceanic
03:19 46.1165 -43.3862 68° East 529 609 31,000  Level FlightAware Transoceanic
03:20 46.1712 -43.1901 68° East 529 609 31,000  Level FlightAware Transoceanic
03:21 46.2255 -42.9936 68° East 529 609 31,000  Level FlightAware Transoceanic
03:22 46.2796 -42.7967 68° East 529 609 31,000  Level FlightAware Transoceanic
03:23 46.3333 -42.5994 69° East 529 609 31,000  Level FlightAware Transoceanic
03:24 46.3867 -42.4017 69° East 529 609 31,000  Level FlightAware Transoceanic
03:25 46.4397 -42.2037 69° East 529 609 31,000  Level FlightAware Transoceanic
03:26 46.4923 -42.0053 69° East 529 609 31,000  Level FlightAware Transoceanic
03:27 46.5447 -41.8064 69° East 529 609 31,000  Level FlightAware Transoceanic
03:28 46.5967 -41.6072 69° East 529 609 31,000  Level FlightAware Transoceanic
03:29 46.6483 -41.4077 69° East 529 609 31,000  Level FlightAware Transoceanic
03:30 46.6996 -41.2077 70° East 529 609 31,000  Level FlightAware Transoceanic
03:31 46.7505 -41.0074 70° East 529 609 31,000  Level FlightAware Transoceanic
03:32 46.8012 -40.8066 70° East 529 609 31,000  Level FlightAware Transoceanic
03:33 46.8514 -40.6055 70° East 529 609 31,000  Level FlightAware Transoceanic
03:34 46.9013 -40.4041 70° East 529 609 31,000  Level FlightAware Transoceanic
03:35 46.9508 -40.2022 70° East 529 609 31,000  Level FlightAware Transoceanic
03:36 47.0000 -40.0000 78° East 529 609 31,000  Level FlightAware Transoceanic
03:37 47.0296 -39.7960 78° East 529 609 31,000  Level FlightAware Transoceanic
03:37 47.0000 -40.0000 78° East 511 588 31,000  Level ETMS Enhanced Traffic Management System
03:38 47.0588 -39.5919 78° East 529 609 31,000  Level FlightAware Transoceanic
03:39 47.0877 -39.3874 78° East 529 609 31,000  Level FlightAware Transoceanic
03:40 47.1162 -39.1828 79° East 529 609 31,000  Level FlightAware Transoceanic
03:41 47.1443 -38.9780 79° East 529 609 31,000  Level FlightAware Transoceanic
03:42 47.1721 -38.7729 79° East 529 609 31,000  Level FlightAware Transoceanic
03:43 47.1995 -38.5676 79° East 511 588 31,000  Level FlightAware Transoceanic
03:44 47.2266 -38.3621 79° East 511 588 31,000  Level FlightAware Transoceanic
03:45 47.2533 -38.1564 79° East 511 588 31,000  Level FlightAware Transoceanic
03:46 47.2796 -37.9506 79° East 511 588 31,000  Level FlightAware Transoceanic
03:47 47.3055 -37.7444 80° East 511 588 31,000  Level FlightAware Transoceanic
03:48 47.3311 -37.5381 80° East 511 588 31,000  Level FlightAware Transoceanic
03:49 47.3563 -37.3316 80° East 511 588 31,000  Level FlightAware Transoceanic
03:50 47.3811 -37.1249 80° East 511 588 31,000  Level FlightAware Transoceanic
03:51 47.4055 -36.9180 80° East 511 588 31,000  Level FlightAware Transoceanic
03:52 47.4296 -36.7110 80° East 511 588 31,000  Level FlightAware Transoceanic
03:53 47.4533 -36.5037 80° East 511 588 31,000  Level FlightAware Transoceanic
03:54 47.4767 -36.2962 81° East 511 588 31,000  Level FlightAware Transoceanic
03:55 47.4996 -36.0886 81° East 511 588 31,000  Level FlightAware Transoceanic
03:56 47.5222 -35.8808 81° East 511 588 31,000  Level FlightAware Transoceanic
03:57 47.5444 -35.6728 81° East 511 588 31,000  Level FlightAware Transoceanic
03:58 47.5662 -35.4646 81° East 511 588 31,000  Level FlightAware Transoceanic
03:59 47.5877 -35.2562 81° East 511 588 31,000  Level FlightAware Transoceanic
04:00 47.6088 -35.0477 82° East 511 588 31,000  Level FlightAware Transoceanic
04:01 47.6295 -34.8391 82° East 511 588 31,000  Level FlightAware Transoceanic
04:02 47.6498 -34.6302 82° East 511 588 31,000  Level FlightAware Transoceanic
04:03 47.6697 -34.4212 82° East 511 588 31,000  Level FlightAware Transoceanic
04:04 47.6893 -34.2121 82° East 511 588 31,000  Level FlightAware Transoceanic
04:05 47.7085 -34.0027 82° East 511 588 31,000  Level FlightAware Transoceanic
04:06 47.7273 -33.7933 82° East 511 588 31,000  Level FlightAware Transoceanic
04:07 47.7457 -33.5836 83° East 511 588 31,000  Level FlightAware Transoceanic
04:08 47.7637 -33.3739 83° East 511 588 31,000  Level FlightAware Transoceanic
04:09 47.7814 -33.1640 83° East 511 588 31,000  Level FlightAware Transoceanic
04:10 47.7987 -32.9539 83° East 511 588 31,000  Level FlightAware Transoceanic
04:11 47.8156 -32.7437 83° East 511 588 31,000  Level FlightAware Transoceanic
04:12 47.8321 -32.5334 83° East 511 588 31,000  Level FlightAware Transoceanic
04:13 47.8482 -32.3229 84° East 511 588 31,000  Level FlightAware Transoceanic
04:14 47.8639 -32.1123 84° East 511 588 31,000  Level FlightAware Transoceanic
04:15 47.8793 -31.9016 84° East 511 588 31,000  Level FlightAware Transoceanic
04:16 47.8942 -31.6908 84° East 511 588 31,000  Level FlightAware Transoceanic
04:17 47.9088 -31.4798 84° East 511 588 31,000  Level FlightAware Transoceanic
04:18 47.9230 -31.2687 84° East 511 588 31,000  Level FlightAware Transoceanic
04:19 47.9368 -31.0576 85° East 511 588 31,000  Level FlightAware Transoceanic
04:20 47.9502 -30.8463 85° East 511 588 31,000  Level FlightAware Transoceanic
04:21 47.9632 -30.6348 85° East 511 588 31,000  Level FlightAware Transoceanic
04:22 47.9759 -30.4233 85° East 511 588 31,000  Level FlightAware Transoceanic
04:23 47.9881 -30.2117 85° East 511 588 31,000  Level FlightAware Transoceanic
04:24 47.9997 -30.0046 85° East  Level FlightAware Approximate
04:25 48.0107 -29.7974 85° East  Level FlightAware Approximate
04:26 48.0081 -29.8018 86° East  Level FlightAware Approximate
04:27 48.0162 -29.5942 87° East  Level FlightAware Approximate
04:27 48.0000 -30.0000 86° East 501 577 31,000  Level ETMS Enhanced Traffic Management System
04:28 48.0239 -29.3866 87° East  Level FlightAware Approximate
04:29 48.0312 -29.1790 87° East  Level FlightAware Approximate
04:30 48.0382 -28.9712 87° East  Level FlightAware Approximate
04:31 48.0447 -28.7635 87° East  Level FlightAware Approximate
04:32 48.0509 -28.5556 87° East  Level FlightAware Approximate
04:33 48.0450 -28.7542 86° East  Level FlightAware Approximate
04:34 48.0512 -28.5464 87° East  Level FlightAware Approximate
04:35 48.0570 -28.3385 88° East  Level FlightAware Approximate
04:36 48.0625 -28.1306 88° East  Level FlightAware Approximate
04:37 48.0675 -27.9226 88° East  Level FlightAware Approximate
04:38 48.0722 -27.7146 88° East  Level FlightAware Approximate
04:39 48.0765 -27.5065 88° East  Level FlightAware Approximate
04:40 48.0805 -27.2985 88° East  Level FlightAware Approximate
04:41 48.0840 -27.0904 88° East  Level FlightAware Approximate
04:42 48.0872 -26.8822 89° East  Level FlightAware Approximate
04:43 48.0900 -26.6741 89° East  Level FlightAware Approximate
04:44 48.0925 -26.4659 89° East  Level FlightAware Approximate
04:45 48.0945 -26.2577 89° East  Level FlightAware Approximate
04:46 48.0962 -26.0495 89° East  Level FlightAware Approximate
04:47 48.0975 -25.8413 89° East  Level FlightAware Approximate
04:48 48.0985 -25.6330 90° East  Level FlightAware Approximate
04:49 48.0990 -25.4248 90° East  Level FlightAware Approximate
04:50 48.0992 -25.2166 90° East  Level FlightAware Approximate
04:51 48.0990 -25.0083 90° East  Level FlightAware Approximate
04:52 48.0984 -24.8001 90° East  Level FlightAware Approximate
04:53 48.0975 -24.5918 90° East  Level FlightAware Approximate
04:54 48.0961 -24.3836 90° East  Level FlightAware Approximate
04:55 48.0945 -24.1754 91° East  Level FlightAware Approximate
04:56 48.0924 -23.9672 91° East  Level FlightAware Approximate
04:57 48.0899 -23.7590 91° East  Level FlightAware Approximate
04:58 48.0871 -23.5509 91° East  Level FlightAware Approximate
04:59 48.0839 -23.3427 91° East  Level FlightAware Approximate
05:00 48.0803 -23.1346 91° East  Level FlightAware Approximate
05:01 48.0764 -22.9266 92° East  Level FlightAware Approximate
05:02 48.0720 -22.7185 92° East  Level FlightAware Approximate
05:03 48.0673 -22.5105 92° East  Level FlightAware Approximate
05:04 48.0636 -22.3025 91° East  Level FlightAware Approximate
05:05 48.0598 -22.0945 92° East  Level FlightAware Approximate
05:06 48.0555 -21.8865 92° East  Level FlightAware Approximate
05:07 48.0509 -21.6786 92° East  Level FlightAware Approximate
05:08 48.0460 -21.4706 92° East  Level FlightAware Approximate
05:09 48.0406 -21.2628 92° East  Level FlightAware Approximate
05:10 48.0349 -21.0550 92° East  Level FlightAware Approximate
05:11 48.0288 -20.8472 92° East  Level FlightAware Approximate
05:12 48.0223 -20.6395 93° East  Level FlightAware Approximate
05:13 48.0154 -20.4318 93° East  Level FlightAware Approximate
05:14 48.0082 -20.2242 93° East  Level FlightAware Approximate
05:15 48.0006 -20.0166 93° East  Level FlightAware Approximate
05:16 48.0040 -19.8089 88° East  Level FlightAware Approximate
05:17 48.0080 -19.6011 88° East  Level FlightAware Approximate
05:18 48.0116 -19.3933 88° East  Level FlightAware Approximate
05:19 48.0148 -19.1855 89° East  Level FlightAware Approximate
05:20 48.0177 -18.9776 89° East  Level FlightAware Approximate
05:21 48.0201 -18.7697 89° East  Level FlightAware Approximate
05:22 48.0222 -18.5618 89° East  Level FlightAware Approximate
05:23 48.0240 -18.3539 89° East  Level FlightAware Approximate
05:24 48.0253 -18.1460 89° East  Level FlightAware Approximate
05:25 48.0263 -17.9380 90° East  Level FlightAware Approximate
05:26 48.0269 -17.7301 90° East  Level FlightAware Approximate
05:27 48.0271 -17.5222 90° East  Level FlightAware Approximate
05:28 48.0270 -17.3142 90° East  Level FlightAware Approximate
05:29 48.0265 -17.1063 90° East  Level FlightAware Approximate
05:30 48.0256 -16.8983 90° East  Level FlightAware Approximate
05:31 48.0243 -16.6904 90° East  Level FlightAware Approximate
05:32 48.0226 -16.4825 91° East  Level FlightAware Approximate
05:33 48.0206 -16.2745 91° East  Level FlightAware Approximate
05:34 48.0182 -16.0667 91° East  Level FlightAware Approximate
05:35 48.0154 -15.8588 91° East  Level FlightAware Approximate
05:36 48.0123 -15.6509 91° East  Level FlightAware Approximate
05:37 48.0088 -15.4431 91° East  Level FlightAware Approximate
05:38 48.0049 -15.2353 92° East  Level FlightAware Approximate
05:39 48.0006 -15.0276 92° East  Level FlightAware Approximate
05:40 47.9768 -14.8231 101° East  Level FlightAware Approximate
05:41 47.9498 -14.6194 101° East  Level FlightAware Approximate
05:42 47.9224 -14.4159 101° East  Level FlightAware Approximate
05:43 47.8946 -14.2126 101° East  Level FlightAware Approximate
05:44 47.8665 -14.0095 102° East  Level FlightAware Approximate
05:45 47.8380 -13.8066 102° East  Level FlightAware Approximate
05:46 47.8092 -13.6040 102° East  Level FlightAware Approximate
05:47 47.7800 -13.4016 102° East  Level FlightAware Approximate
05:48 47.7505 -13.1994 102° East  Level FlightAware Approximate
05:49 47.7206 -12.9975 102° East  Level FlightAware Approximate
05:50 47.6903 -12.7958 102° East  Level FlightAware Approximate
05:51 47.6597 -12.5943 103° East  Level FlightAware Approximate
05:52 47.6287 -12.3930 103° East  Level FlightAware Approximate
05:53 47.5974 -12.1920 103° East  Level FlightAware Approximate
05:54 47.5658 -11.9913 103° East  Level FlightAware Approximate
05:55 47.5337 -11.7908 103° East  Level FlightAware Approximate
05:56 47.5014 -11.5905 103° East  Level FlightAware Approximate
05:57 47.4687 -11.3905 104° East  Level FlightAware Approximate
05:58 47.4356 -11.1907 104° East  Level FlightAware Approximate
05:59 47.4022 -10.9912 104° East  Level FlightAware Approximate
06:00 47.3685 -10.7919 104° East  Level FlightAware Approximate
06:01 47.3344 -10.5929 104° East  Level FlightAware Approximate
06:02 47.2999 -10.3941 104° East  Level FlightAware Approximate
06:03 47.2651 -10.1957 104° East  Level FlightAware Approximate
06:04 47.2300 -9.9974 105° East  Level FlightAware Approximate
06:05 47.1945 -9.7995 105° East  Level FlightAware Approximate
06:06 47.1587 -9.6018 105° East  Level FlightAware Approximate
06:07 47.1226 -9.4043 105° East  Level FlightAware Approximate
06:08 47.0861 -9.2072 105° East  Level FlightAware Approximate
06:09 47.0493 -9.0103 105° East  Level FlightAware Approximate
06:10 47.0121 -8.8137 105° East  Level FlightAware Approximate
06:11 47.0004 -8.6122 90° East  Level FlightAware Approximate
06:12 47.0006 -8.4082 90° East  Level FlightAware Approximate
06:12 46.8090 -7.5470 90° East 498 573 36,700  Level FlightAware
06:12 46.7940 -7.4300 101° East 501 577 37,000 180 Climbing FlightAware
06:13 47.0005 -8.2043 90° East  Level FlightAware Approximate
06:13 46.7760 -7.2800 100° East 501 577 37,000  Level FlightAware
06:14 46.7640 -7.1780 100° East 501 577 37,000 -120 Level FlightAware
06:15 46.7400 -7.0010 101° East 501 577 36,900 -60 Descending FlightAware
06:16 46.7100 -6.7740 101° East 503 579 36,900  Level FlightAware
06:17 46.6780 -6.5240 100° East 507 583 36,900  Level FlightAware
06:18 46.6580 -6.3750 101° East 510 587 36,900  Level FlightAware
06:18 46.6430 -6.2600 101° East 510 587 36,900  Level FlightAware
06:19 46.6240 -6.1130 101° East 510 587 36,900  Level FlightAware
06:20 46.6050 -5.9800 102° East 511 588 36,900  Level FlightAware
06:20 46.5890 -5.8600 101° East 511 588 36,900  Level FlightAware
06:21 46.5680 -5.7100 101° East 512 589 36,900  Level FlightAware
06:22 46.5500 -5.5760 101° East 513 590 36,900  Level FlightAware
06:22 46.5290 -5.4290 102° East 513 590 36,900  Level FlightAware
06:23 46.5100 -5.2940 102° East 513 590 36,900  Level FlightAware
06:24 46.4880 -5.1430 102° East 514 592 36,900  Level FlightAware
06:24 46.4690 -5.0060 101° East 515 593 36,900  Level FlightAware
06:25 46.4450 -4.8430 102° East 515 593 36,900  Level FlightAware
06:26 46.4230 -4.6970 102° East 515 593 36,900  Level FlightAware
06:27 46.4030 -4.5620 102° East 516 594 36,900  Level FlightAware
06:27 46.3830 -4.4270 102° East 516 594 36,900  Level FlightAware
06:28 46.3620 -4.2900 102° East 516 594 36,900  Level FlightAware
06:29 46.3370 -4.1280 103° East 517 595 36,900  Level FlightAware
06:29 46.3170 -3.9950 102° East 516 594 36,900  Level FlightAware
06:30 46.2940 -3.8460 103° East 517 595 36,900  Level FlightAware
06:31 46.2730 -3.7110 103° East 516 594 36,900  Level FlightAware
06:32 46.2490 -3.5590 103° East 515 593 36,900  Level FlightAware
06:32 46.2270 -3.4230 103° East 515 593 36,900  Level FlightAware
06:33 46.2050 -3.2880 103° East 514 592 36,900  Level FlightAware
06:34 46.1820 -3.1440 103° East 512 589 36,900  Level FlightAware
06:34 46.1630 -3.0290 103° East 510 587 36,900  Level FlightAware
06:35 46.1450 -2.9140 103° East 509 586 36,900  Level FlightAware
06:36 46.1200 -2.7650 104° East 508 585 36,900  Level FlightAware
06:36 46.0960 -2.6190 103° East 508 585 36,900  Level FlightAware
06:37 46.0710 -2.4720 104° East 508 585 36,900  Level FlightAware
06:38 46.0480 -2.3380 104° East 507 583 36,900  Level FlightAware
06:38 46.0240 -2.1960 104° East 506 582 36,900  Level FlightAware
06:39 46.0020 -2.0640 103° East 506 582 36,900  Level FlightAware
06:40 45.9790 -1.9310 104° East 505 581 36,900  Level FlightAware
06:41 45.9540 -1.7890 104° East 504 580 36,900  Level FlightAware
06:41 45.9350 -1.6840 105° East 505 581 36,900  Level FlightAware
06:42 45.9080 -1.5300 104° East 505 581 36,900  Level FlightAware
06:43 45.8800 -1.3650 104° East 506 582 36,900  Level FlightAware
06:43 45.8640 -1.2320 100° East 507 583 36,900  Level FlightAware
06:44 45.8490 -1.0760 98° East 506 582 36,900  Level FlightAware
06:45 45.8360 -0.9390 98° East 508 585 36,900  Level FlightAware
06:46 45.8220 -0.8000 98° East 509 586 36,900  Level FlightAware
06:46 45.8130 -0.6730 96° East 508 585 36,900  Level FlightAware
06:47 45.8150 -0.5350 89° East 508 585 36,900  Level FlightAware
06:48 45.8180 -0.3810 88° East 508 585 36,900  Level FlightAware
06:48 45.8190 -0.2790 89° East 505 581 36,900 60 Level FlightAware
06:49 45.8220 -0.1380 88° East 504 580 37,000  Climbing FlightAware
06:50 45.8240 0.0180 89° East 504 580 36,900 -120 Descending FlightAware
06:50 45.8250 0.1130 89° East 503 579 36,900  Level FlightAware
06:51 45.8270 0.2660 89° East 503 579 36,900  Level FlightAware
06:52 45.8280 0.3980 89° East 504 580 36,900 60 Level FlightAware
06:52 45.8300 0.5480 89° East 505 581 37,000  Climbing FlightAware
06:53 45.8320 0.6850 89° East 506 582 36,900 -120 Descending FlightAware
06:54 45.8330 0.8210 89° East 506 582 36,900  Level FlightAware
06:54 45.8250 0.9640 95° East 510 587 36,900  Level FlightAware
06:55 45.8080 1.0730 103° East 513 590 36,900 60 Level FlightAware
06:56 45.7810 1.2260 104° East 511 588 37,000  Climbing FlightAware
06:56 45.7620 1.3310 105° East 510 587 36,900 -120 Descending FlightAware
06:57 45.7320 1.4930 105° East 510 587 36,900  Level FlightAware
06:58 45.7050 1.6410 105° East 510 587 36,900  Level FlightAware
06:58 45.6810 1.7650 105° East 510 587 36,900  Level FlightAware
06:59 45.6530 1.9160 105° East 510 587 36,900  Level FlightAware
07:01 45.6070 2.1570 105° East 507 583 36,900  Level FlightAware
07:02 45.5590 2.4040 105° East 505 581 36,900  Level FlightAware
07:02 45.5310 2.5500 105° East 503 579 36,900  Level FlightAware
07:03 45.5070 2.6720 106° East 502 578 36,900  Level FlightAware
07:04 45.4820 2.8030 105° East 502 578 36,900  Level FlightAware
07:04 45.4610 2.9100 106° East 503 579 36,900  Level FlightAware
07:05 45.4290 3.0680 106° East 504 580 36,900  Level FlightAware
07:06 45.4070 3.1770 106° East 505 581 36,900  Level FlightAware
07:07 45.3750 3.3430 105° East 510 587 36,900  Level FlightAware
07:07 45.3490 3.4680 106° East 512 589 36,900  Level FlightAware
07:08 45.3210 3.6040 106° East 513 590 36,900  Level FlightAware
07:09 45.2940 3.7330 107° East 517 595 36,900  Level FlightAware
07:09 45.2450 3.8790 115° Southeast 523 602 36,900  Level FlightAware
07:10 45.2010 4.0030 117° Southeast 524 603 36,900  Level FlightAware
07:11 45.1150 4.2140 120° Southeast 529 609 36,900  Level FlightAware
07:12 45.0600 4.3330 123° Southeast 531 611 36,900  Level FlightAware
07:13 45.0010 4.4560 124° Southeast 533 613 36,900  Level FlightAware
07:13 44.9540 4.5520 125° Southeast 533 613 36,900  Level FlightAware
07:14 44.8940 4.6750 125° Southeast 534 615 36,900  Level FlightAware
07:15 44.8370 4.7940 124° Southeast 534 615 36,900  Level FlightAware
07:15 44.7760 4.9210 124° Southeast 534 615 36,900  Level FlightAware
07:16 44.7220 5.0330 124° Southeast 535 616 36,900  Level FlightAware
07:17 44.6650 5.1500 124° Southeast 535 616 36,900  Level FlightAware
07:17 44.6040 5.2760 124° Southeast 535 616 36,900  Level FlightAware
07:18 44.5430 5.4040 124° Southeast 535 616 36,900  Level FlightAware
07:19 44.4910 5.5120 124° Southeast 534 615 36,900  Level FlightAware
07:20 44.4300 5.6360 125° Southeast 531 611 36,900  Level FlightAware
07:20 44.3710 5.7580 124° Southeast 531 611 36,900  Level FlightAware
07:21 44.3090 5.8800 125° Southeast 529 609 36,900  Level FlightAware
07:22 44.2590 5.9890 123° Southeast 525 604 36,900  Level FlightAware
07:22 44.2020 6.1200 121° Southeast 523 602 36,900  Level FlightAware
07:23 44.1520 6.2310 122° Southeast 520 598 36,900  Level FlightAware
07:24 44.0940 6.3580 122° Southeast 517 595 36,900  Level FlightAware
07:24 44.0420 6.4690 123° Southeast 515 593 36,900 60 Level FlightAware
07:25 43.9960 6.5680 123° Southeast 512 589 37,000  Climbing FlightAware
07:26 43.9340 6.7030 122° Southeast 512 589 36,900 -120 Descending FlightAware
07:27 43.8800 6.8180 123° Southeast 511 588 36,900  Level FlightAware
07:27 43.8240 6.9390 123° Southeast 511 588 36,900  Level FlightAware
07:28 43.7720 7.0490 123° Southeast 510 587 36,900  Level FlightAware
07:29 43.7260 7.1490 122° Southeast 511 588 36,900  Level FlightAware
07:29 43.6710 7.2800 120° Southeast 508 585 36,900  Level FlightAware
07:30 43.6340 7.3990 113° Southeast 507 583 36,900  Level FlightAware
07:31 43.5910 7.5320 114° Southeast 507 583 36,900 60 Level FlightAware
07:32 43.5370 7.6980 114° Southeast 507 583 37,000  Climbing FlightAware
07:32 43.4850 7.8290 119° Southeast 508 585 36,900 -120 Descending FlightAware
07:33 43.4380 7.9420 120° Southeast 506 582 36,900  Level FlightAware
07:34 43.3930 8.0480 120° Southeast 505 581 36,900  Level FlightAware
07:34 43.3410 8.1680 121° Southeast 506 582 36,900  Level FlightAware
07:35 43.2890 8.2890 121° Southeast 507 583 36,900  Level FlightAware
07:36 43.2450 8.3900 121° Southeast 507 583 36,900  Level FlightAware
07:37 43.1880 8.5210 121° Southeast 504 580 36,900 60 Level FlightAware
07:37 43.1390 8.6310 121° Southeast 502 578 37,000  Climbing FlightAware
07:38 43.0870 8.7510 121° Southeast 502 578 36,900  Descending FlightAware
07:39 43.0360 8.8670 121° Southeast 501 577 37,000  Climbing FlightAware
07:39 42.9850 8.9830 121° Southeast 502 578 36,900 -120 Descending FlightAware
07:40 42.9350 9.0940 122° Southeast 502 578 36,900 60 Level FlightAware
07:41 42.8850 9.2070 121° Southeast 502 578 37,000  Climbing FlightAware
07:42 42.8350 9.3200 121° Southeast 503 579 36,900 -120 Descending FlightAware
07:42 42.7810 9.4400 121° Southeast 502 578 36,900  Level FlightAware
07:43 42.7370 9.5370 122° Southeast 502 578 36,900  Level FlightAware
07:43 42.6920 9.6380 121° Southeast 501 577 36,900  Level FlightAware
07:44 42.6410 9.7500 122° Southeast 499 574 36,900  Level FlightAware
07:45 42.5940 9.8560 121° Southeast 498 573 36,900  Level FlightAware
07:45 42.5550 9.9590 117° Southeast 497 572 36,900  Level FlightAware
07:46 42.5130 10.0820 115° Southeast 495 570 36,900 60 Level FlightAware
07:47 42.4750 10.1960 114° Southeast 495 570 37,000  Climbing FlightAware
07:48 42.4320 10.3270 114° Southeast 496 571 36,900 -120 Descending FlightAware
07:48 42.3960 10.4340 114° Southeast 496 571 36,900  Level FlightAware
07:49 42.3550 10.5580 114° Southeast 493 567 36,900  Level FlightAware
07:50 42.3150 10.6750 115° Southeast 491 565 36,900  Level FlightAware
07:50 42.2820 10.7730 114° Southeast 491 565 36,900  Level FlightAware
07:51 42.2430 10.8880 115° Southeast 490 564 36,900 60 Level FlightAware
07:52 42.1990 11.0070 116° Southeast 489 563 37,000  Climbing FlightAware
07:52 42.1450 11.1040 127° Southeast 488 562 36,900 -120 Descending FlightAware
07:53 42.0800 11.2070 130° Southeast 488 562 36,900  Level FlightAware
07:54 42.0210 11.3000 130° Southeast 488 562 36,900  Level FlightAware
07:54 41.9570 11.4010 130° Southeast 491 565 36,900  Level FlightAware
07:55 41.8990 11.4930 130° Southeast 492 566 36,900  Level FlightAware
07:56 41.8350 11.5930 131° Southeast 495 570 36,900  Level FlightAware
07:57 41.7700 11.6940 131° Southeast 494 568 36,900  Level FlightAware
07:57 41.7070 11.7930 130° Southeast 493 567 36,900  Level FlightAware
07:58 41.6500 11.8810 131° Southeast 493 567 36,900  Level FlightAware
07:59 41.5850 11.9810 131° Southeast 492 566 36,900  Level FlightAware
07:59 41.5350 12.0580 131° Southeast 489 563 36,900  Level FlightAware
08:00 41.4720 12.1550 131° Southeast 488 562 36,900  Level FlightAware
08:01 41.4110 12.2490 131° Southeast 487 560 36,900 60 Level FlightAware
08:01 41.3460 12.3490 131° Southeast 487 560 37,000  Climbing FlightAware
08:02 41.2860 12.4390 132° Southeast 488 562 36,900  Descending FlightAware
08:03 41.2200 12.5390 131° Southeast 489 563 37,000  Climbing FlightAware
08:03 41.1610 12.6280 131° Southeast 490 564 36,900 -120 Descending FlightAware
08:04 41.1070 12.7380 123° Southeast 490 564 36,900  Level FlightAware
08:05 41.0610 12.8430 120° Southeast 490 564 36,900  Level FlightAware
08:06 41.0070 12.9570 122° Southeast 489 563 36,900  Level FlightAware
08:06 40.9600 13.0560 122° Southeast 488 562 36,900  Level FlightAware
08:07 40.9150 13.1600 120° Southeast 488 562 36,900  Level FlightAware
08:08 40.8620 13.2790 120° Southeast 489 563 36,900  Level FlightAware
08:08 40.8160 13.3800 121° Southeast 489 563 36,900  Level FlightAware
08:09 40.7660 13.4890 121° Southeast 488 562 36,900  Level FlightAware
08:10 40.7180 13.5950 121° Southeast 488 562 36,900  Level FlightAware
08:10 40.6670 13.7060 121° Southeast 488 562 36,900  Level FlightAware
08:11 40.6090 13.8320 121° Southeast 488 562 36,900  Level FlightAware
08:12 40.5450 13.9710 121° Southeast 487 560 36,900  Level FlightAware
08:13 40.5020 14.0630 122° Southeast 487 560 36,900  Level FlightAware
08:14 40.4500 14.1740 122° Southeast 489 563 36,900  Level FlightAware
08:14 40.4040 14.2750 121° Southeast 489 563 36,900  Level FlightAware
08:16 40.3070 14.4830 121° Southeast 491 565 36,900  Level FlightAware
08:16 40.2470 14.6100 122° Southeast 493 567 36,900  Level FlightAware
08:17 40.1940 14.7220 122° Southeast 494 568 36,900  Level FlightAware
08:18 40.1480 14.8190 122° Southeast 496 571 36,900  Level FlightAware
08:18 40.0950 14.9310 122° Southeast 497 572 36,900  Level FlightAware
08:19 40.0470 15.0310 122° Southeast 496 571 36,900  Level FlightAware
08:20 39.9950 15.1400 122° Southeast 495 570 36,900  Level FlightAware
08:20 39.9510 15.2330 122° Southeast 495 570 36,900  Level FlightAware
08:21 39.9030 15.3310 123° Southeast 494 568 36,900  Level FlightAware
08:22 39.8520 15.4370 122° Southeast 493 567 36,900  Level FlightAware
08:23 39.7990 15.5450 123° Southeast 492 566 36,900  Level FlightAware
08:23 39.7530 15.6570 118° Southeast 492 566 36,900  Level FlightAware
08:24 39.7120 15.7740 114° Southeast 492 566 36,900  Level FlightAware
08:25 39.6710 15.8940 114° Southeast 493 567 36,900  Level FlightAware
08:25 39.6340 16.0020 114° Southeast 494 568 36,900  Level FlightAware
08:26 39.5940 16.1180 114° Southeast 496 571 36,900  Level FlightAware
08:27 39.5560 16.2290 114° Southeast 499 574 36,900  Level FlightAware
08:27 39.5170 16.3420 114° Southeast 501 577 36,900  Level FlightAware
08:28 39.4760 16.4600 114° Southeast 503 579 36,900 60 Level FlightAware
08:29 39.4400 16.5660 114° Southeast 506 582 37,000  Climbing FlightAware
08:29 39.4030 16.6720 114° Southeast 511 588 36,900 -120 Descending FlightAware
08:30 39.3620 16.7880 115° Southeast 513 590 36,900  Level FlightAware
08:31 39.3240 16.8950 115° Southeast 512 589 36,900  Level FlightAware
08:32 39.2810 17.0160 115° Southeast 513 590 36,900  Level FlightAware
08:32 39.2410 17.1310 114° Southeast 513 590 36,900  Level FlightAware
08:33 39.1920 17.2660 115° Southeast 515 593 36,900 60 Level FlightAware
08:34 39.1420 17.4070 115° Southeast 515 593 37,000  Climbing FlightAware
08:35 39.1010 17.5190 115° Southeast 517 595 36,900 -120 Descending FlightAware
08:35 39.0640 17.6220 115° Southeast 517 595 36,900  Level FlightAware
08:36 39.0200 17.7420 115° Southeast 517 595 36,900  Level FlightAware
08:37 38.9740 17.8690 115° Southeast 518 596 36,900  Level FlightAware
08:37 38.9350 17.9750 115° Southeast 519 597 36,900  Level FlightAware
08:38 38.8940 18.0880 115° Southeast 519 597 36,900  Level FlightAware
08:39 38.8520 18.2000 116° Southeast 521 600 36,900  Level FlightAware
08:40 38.7990 18.3420 116° Southeast 522 601 36,900  Level FlightAware
08:40 38.7610 18.4470 115° Southeast 522 601 36,900  Level FlightAware
08:41 38.7190 18.5590 116° Southeast 522 601 36,900  Level FlightAware
08:42 38.6700 18.6870 116° Southeast 523 602 36,900  Level FlightAware
08:42 38.6270 18.8020 116° Southeast 524 603 36,900  Level FlightAware
08:43 38.5860 18.9100 116° Southeast 524 603 36,900  Level FlightAware
08:44 38.5340 19.0610 114° Southeast 527 606 36,900  Level FlightAware
08:44 38.4970 19.1980 109° East 530 610 36,900  Level FlightAware
08:45 38.4630 19.3140 110° East 530 610 36,900  Level FlightAware
08:46 38.4220 19.4470 111° Southeast 532 612 36,900  Level FlightAware
08:47 38.3870 19.5620 111° Southeast 534 615 36,900  Level FlightAware
08:47 38.3500 19.6820 111° Southeast 537 618 36,900  Level FlightAware
08:48 38.3100 19.8140 111° Southeast 538 619 36,900  Level FlightAware
08:49 38.2700 19.9440 111° Southeast 539 620 36,900  Level FlightAware
08:49 38.2370 20.0490 112° Southeast 539 620 36,900  Level FlightAware
08:50 38.2010 20.1670 111° Southeast 539 620 36,900  Level FlightAware
08:51 38.1640 20.2840 112° Southeast 539 620 36,900  Level FlightAware
08:51 38.1230 20.4170 111° Southeast 536 617 36,900  Level FlightAware
08:52 38.0860 20.5350 112° Southeast 535 616 36,900  Level FlightAware
08:53 38.0500 20.6490 112° Southeast 532 612 36,900 60 Level FlightAware
08:53 38.0090 20.7770 112° Southeast 530 610 37,000  Climbing FlightAware
08:54 37.9710 20.8950 112° Southeast 528 608 36,900 -120 Descending FlightAware
08:55 37.9240 21.0420 112° Southeast 529 609 36,900  Level FlightAware
08:56 37.8870 21.1580 112° Southeast 530 610 36,900  Level FlightAware
08:56 37.8520 21.2660 112° Southeast 534 615 36,900  Level FlightAware
08:57 37.8100 21.3970 112° Southeast 535 616 36,900  Level FlightAware
08:58 37.7720 21.5110 113° Southeast 537 618 36,900  Level FlightAware
08:58 37.7330 21.6320 112° Southeast 537 618 36,900  Level FlightAware
08:59 37.6900 21.7620 113° Southeast 537 618 36,900  Level FlightAware
09:00 37.6500 21.8830 113° Southeast 538 619 36,900  Level FlightAware
09:01 37.6090 22.0060 113° Southeast 541 623 36,900  Level FlightAware
09:01 37.5710 22.1210 113° Southeast 541 623 36,900  Level FlightAware
09:02 37.5320 22.2390 113° Southeast 542 624 36,900  Level FlightAware
09:02 37.5010 22.3300 113° Southeast 544 626 36,900  Level FlightAware
09:03 37.4540 22.4710 113° Southeast 545 627 36,900  Level FlightAware
09:04 37.4180 22.5760 113° Southeast 545 627 36,900  Level FlightAware
09:04 37.3820 22.6820 113° Southeast 544 626 36,900  Level FlightAware
09:05 37.3390 22.8100 113° Southeast 543 625 36,900  Level FlightAware
09:06 37.3000 22.9240 113° Southeast 543 625 36,900  Level FlightAware
09:06 37.2640 23.0280 113° Southeast 543 625 36,900  Level FlightAware
09:07 37.2200 23.1570 113° Southeast 542 624 36,900  Level FlightAware
09:08 37.1800 23.2730 113° Southeast 541 623 36,900  Level FlightAware
09:09 37.1370 23.3970 113° Southeast 539 620 36,900  Level FlightAware
09:09 37.0920 23.5260 114° Southeast 538 619 36,900  Level FlightAware
09:10 37.0550 23.6330 113° Southeast 538 619 36,900  Level FlightAware
09:11 36.9690 23.8750 114° Southeast 536 617 36,900  Level FlightAware
09:12 36.9270 23.9960 113° Southeast 536 617 36,900  Level FlightAware
09:13 36.8850 24.1150 114° Southeast 535 616 36,900 60 Level FlightAware
09:13 36.8430 24.2310 114° Southeast 535 616 37,000  Climbing FlightAware
09:14 36.8070 24.3320 114° Southeast 534 615 36,900 -120 Descending FlightAware
09:15 36.7720 24.4300 114° Southeast 534 615 36,900  Level FlightAware
09:15 36.7210 24.5720 114° Southeast 533 613 36,900  Level FlightAware
09:16 36.6890 24.6620 114° Southeast 532 612 36,900  Level FlightAware
09:17 36.6480 24.7750 114° Southeast 531 611 36,900 60 Level FlightAware
09:17 36.6020 24.9020 114° Southeast 530 610 37,000  Climbing FlightAware
09:18 36.5760 24.9730 114° Southeast 529 609 36,900 -120 Descending FlightAware
09:18 36.5390 25.0760 114° Southeast 529 609 36,900  Level FlightAware
09:19 36.4990 25.1860 114° Southeast 529 609 36,900  Level FlightAware
09:20 36.4560 25.3020 115° Southeast 529 609 36,900  Level FlightAware
09:20 36.4200 25.4000 115° Southeast 529 609 36,900  Level FlightAware
09:21 36.3740 25.5240 115° Southeast 529 609 36,900  Level FlightAware
09:22 36.3340 25.6330 114° Southeast 530 610 36,900  Level FlightAware
09:23 36.2880 25.7550 115° Southeast 530 610 36,900  Level FlightAware
09:23 36.2490 25.8600 115° Southeast 529 609 36,900  Level FlightAware
09:24 36.2020 25.9860 115° Southeast 529 609 36,900  Level FlightAware
09:25 36.1590 26.1010 115° Southeast 529 609 36,900  Level FlightAware
09:25 36.1220 26.2010 115° Southeast 530 610 36,900  Level FlightAware
09:26 36.0780 26.3160 115° Southeast 528 608 36,900  Level FlightAware
09:27 36.0370 26.4240 115° Southeast 526 605 36,900  Level FlightAware
09:27 35.9950 26.5340 115° Southeast 525 604 36,900  Level FlightAware
09:28 35.9480 26.6570 115° Southeast 525 604 36,900  Level FlightAware
09:29 35.9060 26.7670 115° Southeast 525 604 36,900  Level FlightAware
09:29 35.8690 26.8650 115° Southeast 525 604 36,900  Level FlightAware
09:30 35.8020 27.0370 116° Southeast 525 604 36,900  Level FlightAware
09:31 35.7470 27.1800 115° Southeast 524 603 36,900  Level FlightAware
09:32 35.7170 27.2610 115° Southeast 524 603 36,900  Level FlightAware
09:35 35.5484 27.6457 118° Southeast  Level Estimated
09:35 35.5060 27.7950 118° Southeast 517 595 36,900  Level FlightAware
09:36 35.4660 27.8970 116° Southeast 517 595 36,900  Level FlightAware
09:36 35.4310 27.9860 116° Southeast 517 595 36,900  Level FlightAware
09:37 35.3770 28.1210 116° Southeast 517 595 36,900  Level FlightAware
09:38 35.3410 28.2110 116° Southeast 517 595 36,900  Level FlightAware
09:39 35.2910 28.3360 116° Southeast 518 596 36,900  Level FlightAware
09:39 35.2460 28.4470 116° Southeast 520 598 36,900  Level FlightAware
09:40 35.1990 28.5650 116° Southeast 521 600 36,900  Level FlightAware
09:41 35.1560 28.6680 117° Southeast 519 597 36,900  Level FlightAware
09:41 35.1190 28.7600 116° Southeast 520 598 36,900  Level FlightAware
09:42 35.0570 28.9120 116° Southeast 523 602 36,900  Level FlightAware
09:43 35.0180 29.0100 116° Southeast 523 602 36,900  Level FlightAware
09:44 34.9680 29.1330 116° Southeast 523 602 36,900  Level FlightAware
09:44 34.9180 29.2520 117° Southeast 36,900  Level FlightAware
09:46 34.8030 29.5280 117° Southeast 517 595 36,900  Level FlightAware
09:47 34.7600 29.6320 117° Southeast 516 594 36,900  Level FlightAware
09:48 34.7020 29.7710 117° Southeast 514 592 36,900  Level FlightAware
09:48 34.6600 29.8720 117° Southeast 510 587 36,900  Level FlightAware
09:49 34.6250 29.9570 117° Southeast 510 587 36,900  Level FlightAware
09:50 34.5940 30.0360 115° Southeast 510 587 36,900  Level FlightAware
09:50 34.5220 30.1790 121° Southeast 506 582 36,900  Level FlightAware
09:51 34.4690 30.2870 121° Southeast 501 577 36,900  Level FlightAware
09:52 34.4220 30.3850 120° Southeast 500 575 36,900  Level FlightAware
09:52 34.3760 30.4830 120° Southeast 501 577 36,900  Level FlightAware
09:53 34.3230 30.5930 120° Southeast 501 577 36,900  Level FlightAware
09:54 34.2740 30.6950 120° Southeast 502 578 36,900  Level FlightAware
09:55 34.2190 30.8090 120° Southeast 506 582 36,900  Level FlightAware
09:56 34.1530 30.9460 120° Southeast 508 585 36,900  Level FlightAware
09:56 34.1070 31.0390 121° Southeast 507 583 36,900  Level FlightAware
09:57 34.0600 31.1370 120° Southeast 507 583 36,900  Level FlightAware
09:58 34.0130 31.2330 121° Southeast 508 585 36,900  Level FlightAware
09:58 33.9590 31.3430 121° Southeast 507 583 36,900  Level FlightAware
09:59 33.9090 31.4440 121° Southeast 506 582 36,900  Level FlightAware
10:00 33.8610 31.5420 121° Southeast 505 581 36,900  Level FlightAware
10:00 33.8060 31.6530 121° Southeast 504 580 36,900  Level FlightAware
10:01 33.7590 31.7470 121° Southeast 504 580 36,900  Level FlightAware
10:02 33.7100 31.8450 121° Southeast 503 579 36,900  Level FlightAware
10:03 33.6550 31.9550 121° Southeast 503 579 36,900  Level FlightAware
10:03 33.6070 32.0510 121° Southeast 502 578 36,900  Level FlightAware
10:04 33.5580 32.1490 121° Southeast 502 578 36,900  Level FlightAware
10:05 33.5020 32.2600 121° Southeast 501 577 36,900  Level FlightAware
10:06 33.4400 32.3840 121° Southeast 501 577 36,900  Level FlightAware
10:06 33.3870 32.4870 122° Southeast 501 577 36,900 -480 Level FlightAware
10:07 33.3430 32.5730 121° Southeast 494 568 36,300 -1,080 Descending FlightAware
10:08 33.2860 32.6840 122° Southeast 489 563 35,400 -1,620 Descending FlightAware
10:08 33.2440 32.7650 122° Southeast 475 547 34,200 -2,160 Descending FlightAware
10:09 33.1990 32.8550 121° Southeast 468 539 32,700 -2,280 Descending FlightAware
10:10 33.1350 32.9770 122° Southeast 461 531 30,600 -1,680 Descending FlightAware
10:11 33.0540 33.1360 121° Southeast 447 514 29,000 -2,220 Descending FlightAware
10:12 33.0050 33.2280 122° Southeast 427 491 26,200 -3,780 Descending FlightAware
10:12 32.9650 33.3050 122° Southeast 440 506 24,100 -2,880 Descending FlightAware
10:13 32.9200 33.3910 122° Southeast 427 491 22,400 -2,280 Descending FlightAware
10:14 32.8860 33.4550 122° Southeast 415 478 21,200 -540 Descending FlightAware
10:15 32.8030 33.6200 123° Southeast 415 478 21,200 -1,140 Level FlightAware
10:16 32.7521 33.6963 123° Southeast  Level FlightAware Approximate
10:16 32.7400 33.7320 124° Southeast 372 428 18,400  Level FlightAware
10:17 32.6980 33.8130 122° Southeast 369 425 17,200 -1,440 Descending FlightAware
10:18 32.6600 33.8830 123° Southeast 368 423 16,300 -1,560 Descending FlightAware
10:18 32.6190 33.9610 122° Southeast 364 419 15,000 -1,740 Descending FlightAware
10:19 32.5880 34.0180 123° Southeast 358 412 14,100 -1,620 Descending FlightAware
10:20 32.5520 34.0860 122° Southeast 362 417 13,000 -1,560 Descending FlightAware
10:20 32.5160 34.1520 123° Southeast 355 409 12,000 -1,620 Descending FlightAware
10:21 32.4710 34.2160 130° Southeast 338 389 10,800 -1,140 Descending FlightAware
10:22 32.4190 34.2790 134° Southeast 330 380 10,200 -1,680 Descending FlightAware
10:22 32.3940 34.3060 138° Southeast 324 373 8,900 -1,740 Descending FlightAware
10:23 32.3680 34.3360 136° Southeast 323 372 8,800 -120 Descending FlightAware
10:23 32.3470 34.3620 134° Southeast 323 372 8,800  Level FlightAware
10:24 32.3250 34.3870 136° Southeast 323 372 8,800 -1,320 Level FlightAware
10:26 32.1534 34.6283 128° Southeast  Level FlightAware Approximate
10:26 32.2140 34.5390 128° Southeast 5,600  Level FlightAware
10:26 32.1900 34.5840 122° Southeast 271 312 5,100 -600 Descending FlightAware
10:26 32.1770 34.6080 123° Southeast 273 314 5,100  Level FlightAware
10:27 32.1620 34.6370 121° Southeast 272 313 5,100  Level FlightAware
10:27 32.1470 34.6630 124° Southeast 271 312 5,100  Level FlightAware
10:28 32.1250 34.7020 124° Southeast 271 312 5,100  Level FlightAware
10:28 32.1070 34.7350 123° Southeast 269 310 5,100  Level FlightAware
10:28 32.0950 34.7560 124° Southeast 263 303 5,100  Level FlightAware
10:29 32.0820 34.7790 124° Southeast 252 290 5,100 -240 Level FlightAware
10:29 32.0490 34.8200 134° Southeast 228 262 4,900 -420 Descending FlightAware
10:30 32.0320 34.8380 138° Southeast 229 264 4,700 -480 Descending FlightAware
10:30 32.0190 34.8530 136° Southeast 229 264 4,600 -900 Descending FlightAware
10:31 31.9980 34.8760 137° Southeast 227 261 4,000 -1,560 Descending FlightAware
10:31 31.9860 34.9030 118° Southeast 219 252 3,200 -1,380 Descending FlightAware
10:31 31.9910 34.9340 79° East 189 217 2,800 -900 Descending FlightAware
10:32 31.9940 34.9520 79° East 179 206 2,500 -900 Descending FlightAware
10:32 31.9960 34.9570 65° Northeast 179 206 2,400 -180 Descending FlightAware
10:32 32.0010 34.9790 75° East 179 206 2,400  Level FlightAware
10:35 32.0095 34.8769 276° West  Level Estimated
10:36 32.0095 34.8769 270° West  Level Estimated